map of TAH home
TAH - Airport
Location
City:  Tanna, Tanna Island, Taféa, Vanuatu
Near (Alt.):White Grass
ICAO:NVVW
IATA:TAH

Details
Type:Airport (Aerodrome, Airfield)
Latitude:19°27'18"S (-19.454999)
Longitude:169°13'24"E (169.223333)
Elevation:19 ft (6 m)
Variation:12.12°E (WMM2015 magnetic declination)
0.03° annual change
Runways:1
Longest:6562 × 98 ft (2000 × 30 m)

Time
Time Zone:UTC+11 (DST+12)

Weather
TAF:NVVW 201000Z 2012/2112 VRB04KT 9999 BKN020 OVC040 INTER 2012/2018 8000 SHRA BKN018 OVC035

Related Locations
Nearby:
Farthest:TIY: 12360 mi / 19892 km
Tidjikja, MR

Find:

   beyond  
but within

Other Information
Maps:
NOTAMs:
Links:
Sources:

  
  • flag of Vanuatu
  

Sectional Chart

Flight Planning
at skyvector.com

Satellite Image

Google Maps Satellite view

 

Copyright © 2004-2018 Karl L. Swartz. All rights reserved.
The Great Circle Mapper name and logo are trademarks of the Great Circle Mapper.
All other trademarks mentioned herein belong to their respective owners.
Please see credits for attibutions and further copyright information.

  Follow gcmap on Facebook Follow gcmap on Twitter Follow gcmap on Google+ GCmap on LinkedIn

hCard Microformat

Geo Microformat